• Join FlightAware (Why Join?)
  • Login
  • US Flag 
04:03PM EDT


 

Airport Tracker/Info


-or-


 

Live Flight TrackerFlight Track Log ✈ ASQ45T ✈ 02-Jul-2013 ✈ KTUL - KORD

Flight Track Log - Related Links

Times and Time Zones

All times are in EDT time to prevent confusion due to time zone crossing. See the ASQ45T flight status page for this flight to view local times or setup timezone preferences in your user account.

Time Position Orientation Groundspeed Altitude Reporting Facility
EDT Latitude Longitude Course Direction KTS MPH feet Rate Location/Type
01:59PM 36.2136 -95.8817 North 168 193 1,300  Level Kansas City Center
02:00PM 36.2469 -95.8800 North 199 229 2,500 2,580 Climbing Kansas City Center
02:01PM 36.2947 -95.8244 43° Northeast 247 284 5,800 2,940 Climbing Kansas City Center
02:02PM 36.3247 -95.7486 64° Northeast 243 280 8,800 2,340 Climbing Kansas City Center
02:03PM 36.3581 -95.6681 63° Northeast 251 289 10,600 1,800 Climbing Kansas City Center
02:04PM 36.3978 -95.5700 63° Northeast 291 335 12,500 1,620 Climbing Kansas City Center
02:05PM 36.4408 -95.4633 63° Northeast 331 381 14,000 1,380 Climbing Kansas City Center
02:06PM 36.4856 -95.3503 64° Northeast 360 414 15,400 1,320 Climbing Kansas City Center
02:07PM 36.5317 -95.2339 64° Northeast 373 429 16,800 1,320 Climbing Kansas City Center
02:08PM 36.5794 -95.1153 63° Northeast 381 438 18,200 1,200 Climbing Kansas City Center
02:09PM 36.6300 -94.9800 65° Northeast 388 447 19,300 1,020 Climbing Kansas City Center
02:10PM 36.6803 -94.8519 64° Northeast 402 463 20,300 960 Climbing Kansas City Center
02:11PM 36.7306 -94.7225 64° Northeast 411 473 21,300 1,020 Climbing Kansas City Center
02:12PM 36.7914 -94.5664 64° Northeast 416 479 22,500 1,020 Climbing Kansas City Center
02:13PM 36.8047 -94.4233 83° East 421 484 23,500 1,020 Climbing Kansas City Center
02:14PM 36.8078 -94.2758 88° East 423 487 24,600 1,020 Climbing Kansas City Center
02:15PM 36.8814 -94.1622 51° Northeast 417 480 25,600 900 Climbing Kansas City Center
02:16PM 36.9739 -94.0692 39° Northeast 424 488 26,500 900 Climbing Kansas City Center
02:17PM 37.0644 -93.9744 40° Northeast 424 488 27,500 1,020 Climbing Kansas City Center
02:18PM 37.1664 -93.8672 40° Northeast 420 483 28,700 1,020 Climbing Kansas City Center
02:19PM 37.2561 -93.7733 40° Northeast 420 483 29,700 960 Climbing Kansas City Center
02:20PM 37.3464 -93.6783 40° Northeast 421 484 30,700 960 Climbing Kansas City Center
02:21PM 37.4386 -93.5817 40° Northeast 426 490 31,700 960 Climbing Kansas City Center
02:22PM 37.5314 -93.4836 40° Northeast 431 496 32,700 960 Climbing Kansas City Center
02:23PM 37.6239 -93.3839 40° Northeast 435 501 33,700 960 Climbing Kansas City Center
02:24PM 37.7178 -93.2853 40° Northeast 436 502 34,700 600 Climbing Kansas City Center
02:25PM 37.8117 -93.1861 40° Northeast 436 502 35,000 120 Climbing Kansas City Center
02:26PM 37.9269 -93.0606 41° Northeast 448 516 35,000  Level Kansas City Center
02:27PM 38.0250 -92.9547 40° Northeast 457 526 35,000  Level Kansas City Center
02:28PM 38.1211 -92.8508 40° Northeast 453 521 35,000  Level Kansas City Center
02:29PM 38.2183 -92.7483 40° Northeast 450 518 35,000  Level Kansas City Center
02:30PM 38.3131 -92.6428 41° Northeast 448 516 35,000  Level Kansas City Center
02:31PM 38.4092 -92.5381 40° Northeast 448 516 35,000  Level Kansas City Center
02:33PM 38.5056 -92.4339 40° Northeast 449 517 35,000  Level Kansas City Center
02:34PM 38.5989 -92.3281 42° Northeast 447 514 35,000  Level Kansas City Center
02:35PM 38.6944 -92.2222 41° Northeast 449 517 35,000  Level Kansas City Center
02:36PM 38.7919 -92.1158 40° Northeast 455 524 35,000  Level Kansas City Center
02:37PM 38.9081 -91.9864 41° Northeast 458 527 35,000  Level Kansas City Center
02:38PM 39.0028 -91.8797 41° Northeast 453 521 35,000  Level Kansas City Center
02:39PM 39.0975 -91.7753 41° Northeast 450 518 35,000  Level Kansas City Center
02:40PM 39.1786 -91.6836 41° Northeast 446 513 35,000 -540 Level Kansas City Center
02:41PM 39.2922 -91.5558 41° Northeast 448 516 34,000 -1,020 Descending Kansas City Center
02:42PM 39.3872 -91.4486 41° Northeast 452 520 33,000 -540 Descending Kansas City Center
02:43PM 39.4808 -91.3419 41° Northeast 451 519 33,000  Level Kansas City Center
02:44PM 39.5719 -91.2367 42° Northeast 445 512 33,000  Level Kansas City Center
02:45PM 39.6656 -91.1303 41° Northeast 444 511 33,000  Level Kansas City Center
02:46PM 39.7664 -91.0211 40° Northeast 451 519 33,000  Level Kansas City Center
02:47PM 39.8758 -90.9144 37° Northeast 463 533 33,000  Level Kansas City Center
02:48PM 39.9794 -90.8100 38° Northeast 468 539 33,000  Level Kansas City Center
02:49PM 40.0822 -90.7036 38° Northeast 471 542 33,000  Level Kansas City Center
02:50PM 40.1861 -90.5978 38° Northeast 472 543 33,000  Level Kansas City Center
02:51PM 40.2944 -90.4461 47° Northeast 474 545 33,000  Level Kansas City Center
02:52PM 40.3842 -90.3214 47° Northeast 471 542 33,000  Level Kansas City Center
02:53PM 40.4561 -90.2211 47° Northeast 471 542 33,000  Level Chicago Center
02:54PM 40.5592 -90.0778 47° Northeast 471 542 33,000  Level Chicago Center
02:55PM 40.6492 -89.9514 47° Northeast 474 545 33,000 -840 Level Chicago Center
02:56PM 40.7367 -89.8236 48° Northeast 472 543 31,300 -2,040 Descending Chicago Center
02:57PM 40.8267 -89.6981 47° Northeast 473 544 28,800 -2,760 Descending Chicago Center
02:58PM 40.9133 -89.5758 47° Northeast 460 529 25,700 -2,340 Descending Chicago Center
02:59PM 41.0136 -89.4342 47° Northeast 452 520 24,000 -1,200 Descending Chicago Center
03:00PM 41.0992 -89.3108 47° Northeast 447 514 23,200 -1,020 Descending Chicago Center
03:01PM 41.1797 -89.1953 47° Northeast 440 506 21,900 -1,560 Descending Chicago Center
03:02PM 41.2575 -89.0808 48° Northeast 418 481 20,000 -2,640 Descending Chicago Center
03:03PM 41.3333 -88.9694 48° Northeast 413 475 16,500 -3,600 Descending Chicago Center
03:04PM 41.4189 -88.8439 48° Northeast 382 440 12,600 -2,700 Descending Chicago Center
03:05PM 41.4889 -88.7439 47° Northeast 372 428 11,000 -780 Descending Chicago Center
03:06PM 41.5356 -88.6481 57° Northeast 317 365 11,100  Climbing Chicago Center
03:07PM 41.5733 -88.5525 62° Northeast 296 341 11,100 -180 Level Chicago Center
03:09PM 41.6008 -88.4514 70° East 297 342 10,800 -600 Descending Chicago Center
03:10PM 41.6186 -88.3486 77° East 287 330 9,900 -1,200 Descending Chicago Center
03:11PM 41.6539 -88.2375 67° East 285 328 8,400 -1,380 Descending Chicago Center
03:12PM 41.7133 -88.1906 31° Northeast 255 293 7,100 -1,200 Descending Chicago Center
03:13PM 41.7533 -88.1306 48° Northeast 220 253 5,900 -1,080 Descending Chicago Center
03:14PM 41.7914 -88.0919 37° Northeast 194 223 4,900 -960 Descending Chicago Center
03:15PM 41.8233 -88.0528 42° Northeast 174 200 4,000 -840 Descending Chicago Center
03:16PM 41.8556 -88.0147 41° Northeast 162 186 3,200 -900 Descending Chicago Center
03:17PM 41.8933 -87.9708 41° Northeast 155 178 2,200 -900 Descending Chicago Center
03:18PM 41.9236 -87.9339 42° Northeast 152 175 1,400 -540 Descending Chicago Center
03:19PM 41.9492 -87.9033 42° Northeast 147 169 1,100 -300 Descending Chicago Center
03:21PM 41.9667 -87.9000 37° Northeast  Level FlightAware Approximate